sensor_id;sensor_type;location;lat;lon;timestamp;P1;durP1;ratioP1;P2;durP2;ratioP2
9716;SDS011;4897;43.570;27.832;2024-02-21T00:00:10;33.63;;;30.52;;
9716;SDS011;4897;43.570;27.832;2024-02-21T00:02:38;33.10;;;30.00;;
9716;SDS011;4897;43.570;27.832;2024-02-21T00:05:05;37.00;;;33.70;;
9716;SDS011;4897;43.570;27.832;2024-02-21T00:07:36;37.22;;;33.85;;
9716;SDS011;4897;43.570;27.832;2024-02-21T00:10:03;38.75;;;35.40;;
9716;SDS011;4897;43.570;27.832;2024-02-21T00:12:30;40.20;;;36.65;;
9716;SDS011;4897;43.570;27.832;2024-02-21T00:14:57;42.47;;;38.72;;
9716;SDS011;4897;43.570;27.832;2024-02-21T00:17:24;38.65;;;35.20;;
9716;SDS011;4897;43.570;27.832;2024-02-21T00:19:51;34.90;;;31.75;;
9716;SDS011;4897;43.570;27.832;2024-02-21T00:22:21;34.67;;;31.58;;
9716;SDS011;4897;43.570;27.832;2024-02-21T00:24:49;31.10;;;28.10;;
9716;SDS011;4897;43.570;27.832;2024-02-21T00:27:16;31.50;;;28.48;;
9716;SDS011;4897;43.570;27.832;2024-02-21T00:29:43;31.60;;;28.70;;
9716;SDS011;4897;43.570;27.832;2024-02-21T00:32:10;33.63;;;30.33;;
9716;SDS011;4897;43.570;27.832;2024-02-21T00:34:37;33.70;;;30.52;;
9716;SDS011;4897;43.570;27.832;2024-02-21T00:37:04;36.25;;;32.70;;
9716;SDS011;4897;43.570;27.832;2024-02-21T00:39:31;37.15;;;33.78;;
9716;SDS011;4897;43.570;27.832;2024-02-21T00:41:59;35.47;;;32.28;;
9716;SDS011;4897;43.570;27.832;2024-02-21T00:44:26;38.72;;;35.42;;
9716;SDS011;4897;43.570;27.832;2024-02-21T00:46:53;41.03;;;37.35;;
9716;SDS011;4897;43.570;27.832;2024-02-21T00:49:20;41.08;;;37.47;;
9716;SDS011;4897;43.570;27.832;2024-02-21T00:51:47;38.13;;;34.63;;
9716;SDS011;4897;43.570;27.832;2024-02-21T00:54:14;37.42;;;34.10;;
9716;SDS011;4897;43.570;27.832;2024-02-21T00:56:41;37.30;;;33.60;;
9716;SDS011;4897;43.570;27.832;2024-02-21T00:59:09;35.65;;;32.25;;
9716;SDS011;4897;43.570;27.832;2024-02-21T01:01:36;35.63;;;32.33;;
9716;SDS011;4897;43.570;27.832;2024-02-21T01:04:03;34.40;;;31.10;;
9716;SDS011;4897;43.570;27.832;2024-02-21T01:06:30;36.97;;;33.58;;
9716;SDS011;4897;43.570;27.832;2024-02-21T01:08:57;35.75;;;32.22;;
9716;SDS011;4897;43.570;27.832;2024-02-21T01:11:24;34.50;;;31.40;;
9716;SDS011;4897;43.570;27.832;2024-02-21T01:13:51;38.83;;;35.08;;
9716;SDS011;4897;43.570;27.832;2024-02-21T01:16:19;39.95;;;36.15;;
9716;SDS011;4897;43.570;27.832;2024-02-21T01:18:46;41.42;;;37.83;;
9716;SDS011;4897;43.570;27.832;2024-02-21T01:21:13;44.10;;;40.05;;
9716;SDS011;4897;43.570;27.832;2024-02-21T01:23:40;37.55;;;34.28;;
9716;SDS011;4897;43.570;27.832;2024-02-21T01:26:07;39.08;;;35.40;;
9716;SDS011;4897;43.570;27.832;2024-02-21T01:28:34;37.65;;;34.17;;
9716;SDS011;4897;43.570;27.832;2024-02-21T01:31:02;38.13;;;34.63;;
9716;SDS011;4897;43.570;27.832;2024-02-21T01:33:31;36.13;;;32.63;;
9716;SDS011;4897;43.570;27.832;2024-02-21T01:36:00;34.50;;;31.33;;
9716;SDS011;4897;43.570;27.832;2024-02-21T01:38:27;36.13;;;32.72;;
9716;SDS011;4897;43.570;27.832;2024-02-21T01:40:54;34.28;;;30.88;;
9716;SDS011;4897;43.570;27.832;2024-02-21T01:43:21;36.45;;;33.03;;
9716;SDS011;4897;43.570;27.832;2024-02-21T01:45:49;37.22;;;33.63;;
9716;SDS011;4897;43.570;27.832;2024-02-21T01:48:17;38.83;;;35.20;;
9716;SDS011;4897;43.570;27.832;2024-02-21T01:50:46;41.22;;;37.22;;
9716;SDS011;4897;43.570;27.832;2024-02-21T01:53:16;41.35;;;37.25;;
9716;SDS011;4897;43.570;27.832;2024-02-21T01:55:45;42.30;;;38.30;;
9716;SDS011;4897;43.570;27.832;2024-02-21T01:58:12;41.50;;;37.80;;
9716;SDS011;4897;43.570;27.832;2024-02-21T02:00:40;39.10;;;35.38;;
9716;SDS011;4897;43.570;27.832;2024-02-21T02:03:09;38.35;;;34.83;;
9716;SDS011;4897;43.570;27.832;2024-02-21T02:05:41;36.90;;;33.35;;
9716;SDS011;4897;43.570;27.832;2024-02-21T02:08:11;35.67;;;32.45;;
9716;SDS011;4897;43.570;27.832;2024-02-21T02:10:38;34.65;;;31.40;;
9716;SDS011;4897;43.570;27.832;2024-02-21T02:13:06;36.15;;;32.85;;
9716;SDS011;4897;43.570;27.832;2024-02-21T02:15:43;38.85;;;35.22;;
9716;SDS011;4897;43.570;27.832;2024-02-21T02:18:12;40.88;;;37.15;;
9716;SDS011;4897;43.570;27.832;2024-02-21T02:20:39;44.65;;;40.35;;
9716;SDS011;4897;43.570;27.832;2024-02-21T02:23:07;41.85;;;37.95;;
9716;SDS011;4897;43.570;27.832;2024-02-21T02:25:42;46.47;;;42.17;;
9716;SDS011;4897;43.570;27.832;2024-02-21T02:28:10;41.67;;;37.65;;
9716;SDS011;4897;43.570;27.832;2024-02-21T02:30:37;35.63;;;32.22;;
9716;SDS011;4897;43.570;27.832;2024-02-21T02:33:04;28.23;;;25.10;;
9716;SDS011;4897;43.570;27.832;2024-02-21T02:35:31;27.13;;;24.25;;
9716;SDS011;4897;43.570;27.832;2024-02-21T02:38:00;27.30;;;24.50;;
9716;SDS011;4897;43.570;27.832;2024-02-21T02:40:27;25.90;;;23.23;;
9716;SDS011;4897;43.570;27.832;2024-02-21T02:42:55;25.65;;;23.15;;
9716;SDS011;4897;43.570;27.832;2024-02-21T02:45:23;49.13;;;44.72;;
9716;SDS011;4897;43.570;27.832;2024-02-21T02:47:51;47.60;;;43.03;;
9716;SDS011;4897;43.570;27.832;2024-02-21T02:50:19;53.00;;;48.33;;
9716;SDS011;4897;43.570;27.832;2024-02-21T02:52:46;48.72;;;44.17;;
9716;SDS011;4897;43.570;27.832;2024-02-21T02:55:16;44.58;;;40.45;;
9716;SDS011;4897;43.570;27.832;2024-02-21T02:57:48;47.25;;;42.80;;
9716;SDS011;4897;43.570;27.832;2024-02-21T03:00:17;44.83;;;40.58;;
9716;SDS011;4897;43.570;27.832;2024-02-21T03:02:45;42.67;;;38.75;;
9716;SDS011;4897;43.570;27.832;2024-02-21T03:05:15;39.55;;;35.85;;
9716;SDS011;4897;43.570;27.832;2024-02-21T03:07:43;40.20;;;36.08;;
9716;SDS011;4897;43.570;27.832;2024-02-21T03:10:11;41.63;;;37.65;;
9716;SDS011;4897;43.570;27.832;2024-02-21T03:12:38;40.42;;;36.63;;
9716;SDS011;4897;43.570;27.832;2024-02-21T03:15:05;38.78;;;35.35;;
9716;SDS011;4897;43.570;27.832;2024-02-21T03:17:34;39.42;;;35.67;;
9716;SDS011;4897;43.570;27.832;2024-02-21T03:20:01;40.03;;;36.40;;
9716;SDS011;4897;43.570;27.832;2024-02-21T03:22:30;41.15;;;37.28;;
9716;SDS011;4897;43.570;27.832;2024-02-21T03:24:57;43.05;;;39.15;;
9716;SDS011;4897;43.570;27.832;2024-02-21T03:27:26;41.03;;;37.33;;
9716;SDS011;4897;43.570;27.832;2024-02-21T03:29:54;38.55;;;34.92;;
9716;SDS011;4897;43.570;27.832;2024-02-21T03:32:23;38.50;;;34.95;;
9716;SDS011;4897;43.570;27.832;2024-02-21T03:34:52;37.67;;;34.20;;
9716;SDS011;4897;43.570;27.832;2024-02-21T03:37:20;39.08;;;35.58;;
9716;SDS011;4897;43.570;27.832;2024-02-21T03:39:47;37.65;;;34.13;;
9716;SDS011;4897;43.570;27.832;2024-02-21T03:42:13;36.67;;;33.38;;
9716;SDS011;4897;43.570;27.832;2024-02-21T03:44:40;30.58;;;27.67;;
9716;SDS011;4897;43.570;27.832;2024-02-21T03:47:07;33.65;;;30.48;;
9716;SDS011;4897;43.570;27.832;2024-02-21T03:49:35;37.13;;;33.30;;
9716;SDS011;4897;43.570;27.832;2024-02-21T03:52:04;39.20;;;35.45;;
9716;SDS011;4897;43.570;27.832;2024-02-21T03:54:31;43.72;;;39.63;;
9716;SDS011;4897;43.570;27.832;2024-02-21T03:57:00;40.80;;;37.00;;
9716;SDS011;4897;43.570;27.832;2024-02-21T03:59:27;42.55;;;38.75;;
9716;SDS011;4897;43.570;27.832;2024-02-21T04:01:54;43.85;;;39.55;;
9716;SDS011;4897;43.570;27.832;2024-02-21T04:04:21;39.75;;;36.03;;
9716;SDS011;4897;43.570;27.832;2024-02-21T04:06:48;42.20;;;38.13;;
9716;SDS011;4897;43.570;27.832;2024-02-21T04:09:17;40.08;;;36.20;;
9716;SDS011;4897;43.570;27.832;2024-02-21T04:11:45;39.22;;;35.53;;
9716;SDS011;4897;43.570;27.832;2024-02-21T04:14:12;38.53;;;34.92;;
9716;SDS011;4897;43.570;27.832;2024-02-21T04:16:39;38.08;;;34.45;;
9716;SDS011;4897;43.570;27.832;2024-02-21T04:19:06;41.38;;;37.20;;
9716;SDS011;4897;43.570;27.832;2024-02-21T04:21:33;43.05;;;38.95;;
9716;SDS011;4897;43.570;27.832;2024-02-21T04:23:59;41.65;;;37.70;;
9716;SDS011;4897;43.570;27.832;2024-02-21T04:26:28;37.17;;;33.58;;
9716;SDS011;4897;43.570;27.832;2024-02-21T04:28:55;39.65;;;35.85;;
9716;SDS011;4897;43.570;27.832;2024-02-21T04:31:22;37.22;;;33.50;;
9716;SDS011;4897;43.570;27.832;2024-02-21T04:33:49;38.40;;;34.60;;
9716;SDS011;4897;43.570;27.832;2024-02-21T04:36:16;38.33;;;34.25;;
9716;SDS011;4897;43.570;27.832;2024-02-21T04:38:43;37.85;;;34.05;;
9716;SDS011;4897;43.570;27.832;2024-02-21T04:41:10;37.90;;;34.10;;
9716;SDS011;4897;43.570;27.832;2024-02-21T04:43:41;46.53;;;37.45;;
9716;SDS011;4897;43.570;27.832;2024-02-21T04:46:08;60.40;;;43.53;;
9716;SDS011;4897;43.570;27.832;2024-02-21T04:48:36;42.85;;;35.83;;
9716;SDS011;4897;43.570;27.832;2024-02-21T04:51:06;39.13;;;35.08;;
9716;SDS011;4897;43.570;27.832;2024-02-21T04:53:32;36.80;;;32.92;;
9716;SDS011;4897;43.570;27.832;2024-02-21T04:55:59;36.00;;;32.15;;
9716;SDS011;4897;43.570;27.832;2024-02-21T04:58:26;35.30;;;31.65;;
9716;SDS011;4897;43.570;27.832;2024-02-21T05:00:55;39.72;;;34.60;;
9716;SDS011;4897;43.570;27.832;2024-02-21T05:03:22;39.47;;;34.55;;
9716;SDS011;4897;43.570;27.832;2024-02-21T05:05:52;53.83;;;43.35;;
9716;SDS011;4897;43.570;27.832;2024-02-21T05:08:19;48.42;;;39.25;;
9716;SDS011;4897;43.570;27.832;2024-02-21T05:10:45;44.22;;;39.28;;
9716;SDS011;4897;43.570;27.832;2024-02-21T05:13:12;47.40;;;42.33;;
9716;SDS011;4897;43.570;27.832;2024-02-21T05:15:40;44.30;;;39.47;;
9716;SDS011;4897;43.570;27.832;2024-02-21T05:18:11;44.50;;;40.20;;
9716;SDS011;4897;43.570;27.832;2024-02-21T05:20:38;49.63;;;43.28;;
9716;SDS011;4897;43.570;27.832;2024-02-21T05:23:05;42.47;;;37.88;;
9716;SDS011;4897;43.570;27.832;2024-02-21T05:25:32;45.90;;;39.63;;
9716;SDS011;4897;43.570;27.832;2024-02-21T05:28:02;43.17;;;38.67;;
9716;SDS011;4897;43.570;27.832;2024-02-21T05:30:33;41.95;;;36.92;;
9716;SDS011;4897;43.570;27.832;2024-02-21T05:33:03;40.47;;;35.50;;
9716;SDS011;4897;43.570;27.832;2024-02-21T05:35:33;39.03;;;34.65;;
9716;SDS011;4897;43.570;27.832;2024-02-21T05:38:00;43.75;;;37.13;;
9716;SDS011;4897;43.570;27.832;2024-02-21T05:40:30;43.72;;;38.92;;
9716;SDS011;4897;43.570;27.832;2024-02-21T05:42:57;45.97;;;39.72;;
9716;SDS011;4897;43.570;27.832;2024-02-21T05:45:24;41.78;;;37.30;;
9716;SDS011;4897;43.570;27.832;2024-02-21T05:47:54;38.67;;;34.70;;
9716;SDS011;4897;43.570;27.832;2024-02-21T05:50:22;43.45;;;36.30;;
9716;SDS011;4897;43.570;27.832;2024-02-21T05:52:52;39.20;;;35.00;;
9716;SDS011;4897;43.570;27.832;2024-02-21T05:55:20;42.33;;;36.10;;
9716;SDS011;4897;43.570;27.832;2024-02-21T05:57:47;43.92;;;35.75;;
9716;SDS011;4897;43.570;27.832;2024-02-21T06:00:15;38.08;;;33.70;;
9716;SDS011;4897;43.570;27.832;2024-02-21T06:02:42;40.78;;;36.40;;
9716;SDS011;4897;43.570;27.832;2024-02-21T06:05:09;46.60;;;39.80;;
9716;SDS011;4897;43.570;27.832;2024-02-21T06:07:36;56.25;;;43.35;;
9716;SDS011;4897;43.570;27.832;2024-02-21T06:10:06;55.17;;;44.00;;
9716;SDS011;4897;43.570;27.832;2024-02-21T06:12:36;54.55;;;45.15;;
9716;SDS011;4897;43.570;27.832;2024-02-21T06:15:06;55.80;;;43.78;;
9716;SDS011;4897;43.570;27.832;2024-02-21T06:17:33;51.55;;;41.45;;
9716;SDS011;4897;43.570;27.832;2024-02-21T06:20:00;48.90;;;39.70;;
9716;SDS011;4897;43.570;27.832;2024-02-21T06:22:29;50.20;;;37.05;;
9716;SDS011;4897;43.570;27.832;2024-02-21T06:24:56;48.22;;;38.47;;
9716;SDS011;4897;43.570;27.832;2024-02-21T06:27:25;41.70;;;37.28;;
9716;SDS011;4897;43.570;27.832;2024-02-21T06:29:52;39.92;;;35.63;;
9716;SDS011;4897;43.570;27.832;2024-02-21T06:32:21;43.67;;;33.03;;
9716;SDS011;4897;43.570;27.832;2024-02-21T06:34:48;42.85;;;34.15;;
9716;SDS011;4897;43.570;27.832;2024-02-21T06:37:15;38.38;;;32.30;;
9716;SDS011;4897;43.570;27.832;2024-02-21T06:39:42;37.60;;;33.90;;
9716;SDS011;4897;43.570;27.832;2024-02-21T06:42:09;36.55;;;32.55;;
9716;SDS011;4897;43.570;27.832;2024-02-21T06:44:37;34.83;;;31.10;;
9716;SDS011;4897;43.570;27.832;2024-02-21T06:47:05;45.67;;;31.33;;
9716;SDS011;4897;43.570;27.832;2024-02-21T06:49:32;38.08;;;34.45;;
9716;SDS011;4897;43.570;27.832;2024-02-21T06:52:02;37.65;;;33.85;;
9716;SDS011;4897;43.570;27.832;2024-02-21T06:54:29;35.72;;;31.83;;
9716;SDS011;4897;43.570;27.832;2024-02-21T06:56:56;36.70;;;32.22;;
9716;SDS011;4897;43.570;27.832;2024-02-21T06:59:23;34.95;;;31.45;;
9716;SDS011;4897;43.570;27.832;2024-02-21T07:01:53;35.88;;;32.03;;
9716;SDS011;4897;43.570;27.832;2024-02-21T07:04:20;34.95;;;31.05;;
9716;SDS011;4897;43.570;27.832;2024-02-21T07:06:47;34.53;;;31.23;;
9716;SDS011;4897;43.570;27.832;2024-02-21T07:09:17;29.60;;;26.60;;
9716;SDS011;4897;43.570;27.832;2024-02-21T07:11:44;30.08;;;26.83;;
9716;SDS011;4897;43.570;27.832;2024-02-21T07:14:11;32.28;;;28.88;;
9716;SDS011;4897;43.570;27.832;2024-02-21T07:16:38;34.03;;;30.30;;
9716;SDS011;4897;43.570;27.832;2024-02-21T07:19:06;33.35;;;29.95;;
9716;SDS011;4897;43.570;27.832;2024-02-21T07:21:33;33.10;;;27.15;;
9716;SDS011;4897;43.570;27.832;2024-02-21T07:24:03;34.25;;;30.67;;
9716;SDS011;4897;43.570;27.832;2024-02-21T07:26:40;34.53;;;31.00;;
9716;SDS011;4897;43.570;27.832;2024-02-21T07:29:10;34.05;;;30.60;;
9716;SDS011;4897;43.570;27.832;2024-02-21T07:31:38;33.45;;;30.15;;
9716;SDS011;4897;43.570;27.832;2024-02-21T07:34:08;34.95;;;31.55;;
9716;SDS011;4897;43.570;27.832;2024-02-21T07:36:35;35.55;;;31.92;;
9716;SDS011;4897;43.570;27.832;2024-02-21T07:39:04;35.28;;;31.70;;
9716;SDS011;4897;43.570;27.832;2024-02-21T07:41:31;38.45;;;32.08;;
9716;SDS011;4897;43.570;27.832;2024-02-21T07:43:59;37.15;;;33.25;;
9716;SDS011;4897;43.570;27.832;2024-02-21T07:46:27;35.13;;;31.42;;
9716;SDS011;4897;43.570;27.832;2024-02-21T07:48:53;33.22;;;29.75;;
9716;SDS011;4897;43.570;27.832;2024-02-21T07:51:22;33.95;;;30.40;;
9716;SDS011;4897;43.570;27.832;2024-02-21T07:53:48;37.85;;;32.75;;
9716;SDS011;4897;43.570;27.832;2024-02-21T07:56:16;36.92;;;31.95;;
9716;SDS011;4897;43.570;27.832;2024-02-21T07:58:42;37.08;;;33.20;;
9716;SDS011;4897;43.570;27.832;2024-02-21T08:01:10;40.60;;;33.72;;
9716;SDS011;4897;43.570;27.832;2024-02-21T08:03:36;37.75;;;33.72;;
9716;SDS011;4897;43.570;27.832;2024-02-21T08:06:04;36.80;;;33.05;;
9716;SDS011;4897;43.570;27.832;2024-02-21T08:08:32;38.38;;;33.95;;
9716;SDS011;4897;43.570;27.832;2024-02-21T08:10:59;35.95;;;32.17;;
9716;SDS011;4897;43.570;27.832;2024-02-21T08:13:26;39.17;;;32.58;;
9716;SDS011;4897;43.570;27.832;2024-02-21T08:15:54;36.50;;;32.55;;
9716;SDS011;4897;43.570;27.832;2024-02-21T08:18:21;37.30;;;33.30;;
9716;SDS011;4897;43.570;27.832;2024-02-21T08:20:48;36.78;;;32.88;;
9716;SDS011;4897;43.570;27.832;2024-02-21T08:23:15;39.55;;;35.28;;
9716;SDS011;4897;43.570;27.832;2024-02-21T08:25:43;41.70;;;35.17;;
9716;SDS011;4897;43.570;27.832;2024-02-21T08:28:10;37.60;;;33.55;;
9716;SDS011;4897;43.570;27.832;2024-02-21T08:30:38;40.75;;;34.17;;
9716;SDS011;4897;43.570;27.832;2024-02-21T08:33:05;38.42;;;34.40;;
9716;SDS011;4897;43.570;27.832;2024-02-21T08:35:32;37.22;;;32.90;;
9716;SDS011;4897;43.570;27.832;2024-02-21T08:37:59;41.90;;;33.47;;
9716;SDS011;4897;43.570;27.832;2024-02-21T08:40:26;37.85;;;33.60;;
9716;SDS011;4897;43.570;27.832;2024-02-21T08:42:54;38.50;;;33.63;;
9716;SDS011;4897;43.570;27.832;2024-02-21T08:45:21;33.80;;;30.00;;
9716;SDS011;4897;43.570;27.832;2024-02-21T08:47:50;36.33;;;31.75;;
9716;SDS011;4897;43.570;27.832;2024-02-21T08:50:17;36.10;;;32.30;;
9716;SDS011;4897;43.570;27.832;2024-02-21T08:52:44;42.35;;;33.65;;
9716;SDS011;4897;43.570;27.832;2024-02-21T08:55:11;36.53;;;31.73;;
9716;SDS011;4897;43.570;27.832;2024-02-21T08:57:38;33.28;;;29.77;;
9716;SDS011;4897;43.570;27.832;2024-02-21T09:00:07;34.60;;;30.73;;
9716;SDS011;4897;43.570;27.832;2024-02-21T09:02:36;38.65;;;31.30;;
9716;SDS011;4897;43.570;27.832;2024-02-21T09:05:04;33.15;;;29.70;;
9716;SDS011;4897;43.570;27.832;2024-02-21T09:07:31;36.63;;;33.00;;
9716;SDS011;4897;43.570;27.832;2024-02-21T09:09:58;34.63;;;30.92;;
9716;SDS011;4897;43.570;27.832;2024-02-21T09:12:26;35.60;;;31.15;;
9716;SDS011;4897;43.570;27.832;2024-02-21T09:14:53;36.47;;;30.83;;
9716;SDS011;4897;43.570;27.832;2024-02-21T09:17:21;47.38;;;34.65;;
9716;SDS011;4897;43.570;27.832;2024-02-21T09:19:50;34.80;;;31.40;;
9716;SDS011;4897;43.570;27.832;2024-02-21T09:22:17;33.83;;;30.27;;
9716;SDS011;4897;43.570;27.832;2024-02-21T09:24:44;34.75;;;31.13;;
9716;SDS011;4897;43.570;27.832;2024-02-21T09:27:10;35.22;;;30.23;;
9716;SDS011;4897;43.570;27.832;2024-02-21T09:29:37;35.65;;;29.90;;
9716;SDS011;4897;43.570;27.832;2024-02-21T09:32:05;32.75;;;29.40;;
9716;SDS011;4897;43.570;27.832;2024-02-21T09:34:34;33.55;;;29.95;;
9716;SDS011;4897;43.570;27.832;2024-02-21T09:37:00;32.28;;;29.17;;
9716;SDS011;4897;43.570;27.832;2024-02-21T09:39:27;30.88;;;27.88;;
9716;SDS011;4897;43.570;27.832;2024-02-21T09:41:56;31.38;;;28.17;;
9716;SDS011;4897;43.570;27.832;2024-02-21T09:44:27;33.60;;;28.05;;
9716;SDS011;4897;43.570;27.832;2024-02-21T09:47:02;31.67;;;27.83;;
9716;SDS011;4897;43.570;27.832;2024-02-21T09:49:30;31.67;;;28.48;;
9716;SDS011;4897;43.570;27.832;2024-02-21T09:52:03;29.60;;;26.70;;
9716;SDS011;4897;43.570;27.832;2024-02-21T09:54:34;30.77;;;27.70;;
9716;SDS011;4897;43.570;27.832;2024-02-21T09:57:02;29.27;;;26.38;;
9716;SDS011;4897;43.570;27.832;2024-02-21T09:59:30;31.00;;;27.80;;
9716;SDS011;4897;43.570;27.832;2024-02-21T10:01:58;31.67;;;28.48;;
9716;SDS011;4897;43.570;27.832;2024-02-21T10:04:27;32.78;;;27.92;;
9716;SDS011;4897;43.570;27.832;2024-02-21T10:06:55;32.80;;;29.33;;
9716;SDS011;4897;43.570;27.832;2024-02-21T10:09:24;29.50;;;26.70;;
9716;SDS011;4897;43.570;27.832;2024-02-21T10:11:53;30.48;;;27.27;;
9716;SDS011;4897;43.570;27.832;2024-02-21T10:14:20;30.17;;;27.15;;
9716;SDS011;4897;43.570;27.832;2024-02-21T10:16:47;34.05;;;29.05;;
9716;SDS011;4897;43.570;27.832;2024-02-21T10:19:16;30.83;;;27.73;;
9716;SDS011;4897;43.570;27.832;2024-02-21T10:21:44;30.45;;;27.40;;
9716;SDS011;4897;43.570;27.832;2024-02-21T10:24:27;31.05;;;27.92;;
9716;SDS011;4897;43.570;27.832;2024-02-21T10:26:58;33.30;;;29.45;;
9716;SDS011;4897;43.570;27.832;2024-02-21T10:29:26;28.95;;;26.15;;
9716;SDS011;4897;43.570;27.832;2024-02-21T10:32:02;26.23;;;23.85;;
9716;SDS011;4897;43.570;27.832;2024-02-21T10:34:32;27.65;;;24.30;;
9716;SDS011;4897;43.570;27.832;2024-02-21T10:37:00;28.80;;;25.90;;
9716;SDS011;4897;43.570;27.832;2024-02-21T10:39:30;30.65;;;27.30;;
9716;SDS011;4897;43.570;27.832;2024-02-21T10:42:02;28.73;;;25.88;;
9716;SDS011;4897;43.570;27.832;2024-02-21T10:44:30;28.42;;;25.83;;
9716;SDS011;4897;43.570;27.832;2024-02-21T10:46:58;26.33;;;23.73;;
9716;SDS011;4897;43.570;27.832;2024-02-21T10:49:26;28.85;;;26.05;;
9716;SDS011;4897;43.570;27.832;2024-02-21T10:51:54;31.85;;;25.67;;
9716;SDS011;4897;43.570;27.832;2024-02-21T10:54:39;27.52;;;24.65;;
9716;SDS011;4897;43.570;27.832;2024-02-21T10:57:10;26.20;;;23.80;;
9716;SDS011;4897;43.570;27.832;2024-02-21T10:59:40;30.25;;;25.50;;
9716;SDS011;4897;43.570;27.832;2024-02-21T11:02:07;27.92;;;25.23;;
9716;SDS011;4897;43.570;27.832;2024-02-21T11:04:34;26.83;;;24.23;;
9716;SDS011;4897;43.570;27.832;2024-02-21T11:07:05;28.35;;;25.52;;
9716;SDS011;4897;43.570;27.832;2024-02-21T11:09:33;27.83;;;25.08;;
9716;SDS011;4897;43.570;27.832;2024-02-21T11:12:03;28.45;;;25.75;;
9716;SDS011;4897;43.570;27.832;2024-02-21T11:14:31;36.47;;;30.38;;
9716;SDS011;4897;43.570;27.832;2024-02-21T11:17:01;29.83;;;26.92;;
9716;SDS011;4897;43.570;27.832;2024-02-21T11:19:29;26.45;;;23.85;;
9716;SDS011;4897;43.570;27.832;2024-02-21T11:21:59;28.92;;;26.10;;
9716;SDS011;4897;43.570;27.832;2024-02-21T11:24:30;29.80;;;24.92;;
9716;SDS011;4897;43.570;27.832;2024-02-21T11:27:09;30.00;;;26.77;;
9716;SDS011;4897;43.570;27.832;2024-02-21T11:29:41;26.52;;;23.92;;
9716;SDS011;4897;43.570;27.832;2024-02-21T11:32:09;28.10;;;25.20;;
9716;SDS011;4897;43.570;27.832;2024-02-21T11:34:37;28.00;;;25.13;;
9716;SDS011;4897;43.570;27.832;2024-02-21T11:37:12;26.65;;;24.05;;
9716;SDS011;4897;43.570;27.832;2024-02-21T11:39:42;28.25;;;25.35;;
9716;SDS011;4897;43.570;27.832;2024-02-21T11:42:10;29.77;;;26.63;;
9716;SDS011;4897;43.570;27.832;2024-02-21T11:44:38;27.38;;;24.58;;
9716;SDS011;4897;43.570;27.832;2024-02-21T11:47:07;27.98;;;25.38;;
9716;SDS011;4897;43.570;27.832;2024-02-21T11:49:36;28.33;;;25.63;;
9716;SDS011;4897;43.570;27.832;2024-02-21T11:52:05;27.88;;;25.08;;
9716;SDS011;4897;43.570;27.832;2024-02-21T11:54:32;29.35;;;26.45;;
9716;SDS011;4897;43.570;27.832;2024-02-21T11:57:03;28.52;;;25.20;;
9716;SDS011;4897;43.570;27.832;2024-02-21T11:59:32;29.15;;;26.30;;
9716;SDS011;4897;43.570;27.832;2024-02-21T12:01:59;32.85;;;26.05;;
9716;SDS011;4897;43.570;27.832;2024-02-21T12:04:28;30.08;;;27.08;;
9716;SDS011;4897;43.570;27.832;2024-02-21T12:07:00;31.30;;;27.52;;
9716;SDS011;4897;43.570;27.832;2024-02-21T12:09:29;31.15;;;27.90;;
9716;SDS011;4897;43.570;27.832;2024-02-21T12:11:59;30.45;;;27.52;;
9716;SDS011;4897;43.570;27.832;2024-02-21T12:14:28;33.45;;;30.00;;
9716;SDS011;4897;43.570;27.832;2024-02-21T12:16:57;30.02;;;27.05;;
9716;SDS011;4897;43.570;27.832;2024-02-21T12:19:24;30.15;;;27.02;;
9716;SDS011;4897;43.570;27.832;2024-02-21T12:21:52;30.52;;;27.30;;
9716;SDS011;4897;43.570;27.832;2024-02-21T12:24:23;31.55;;;28.35;;
9716;SDS011;4897;43.570;27.832;2024-02-21T12:26:51;32.20;;;27.98;;
9716;SDS011;4897;43.570;27.832;2024-02-21T12:29:18;29.85;;;26.75;;
9716;SDS011;4897;43.570;27.832;2024-02-21T12:31:48;30.80;;;27.70;;
9716;SDS011;4897;43.570;27.832;2024-02-21T12:34:19;32.47;;;28.55;;
9716;SDS011;4897;43.570;27.832;2024-02-21T12:36:47;31.35;;;27.92;;
9716;SDS011;4897;43.570;27.832;2024-02-21T12:39:17;31.77;;;28.45;;
9716;SDS011;4897;43.570;27.832;2024-02-21T12:41:47;33.47;;;28.42;;
9716;SDS011;4897;43.570;27.832;2024-02-21T12:44:14;33.92;;;29.52;;
9716;SDS011;4897;43.570;27.832;2024-02-21T12:46:42;32.72;;;28.85;;
9716;SDS011;4897;43.570;27.832;2024-02-21T12:49:09;33.45;;;29.73;;
9716;SDS011;4897;43.570;27.832;2024-02-21T12:51:38;34.58;;;30.83;;
9716;SDS011;4897;43.570;27.832;2024-02-21T12:54:07;33.60;;;30.08;;
9716;SDS011;4897;43.570;27.832;2024-02-21T12:56:36;33.72;;;30.33;;
9716;SDS011;4897;43.570;27.832;2024-02-21T12:59:03;36.53;;;32.60;;
9716;SDS011;4897;43.570;27.832;2024-02-21T13:01:30;33.65;;;30.15;;
9716;SDS011;4897;43.570;27.832;2024-02-21T13:04:00;33.42;;;27.75;;
9716;SDS011;4897;43.570;27.832;2024-02-21T13:06:27;31.65;;;26.98;;
9716;SDS011;4897;43.570;27.832;2024-02-21T13:08:58;31.35;;;27.08;;
9716;SDS011;4897;43.570;27.832;2024-02-21T13:11:28;29.95;;;26.75;;
9716;SDS011;4897;43.570;27.832;2024-02-21T13:13:56;32.42;;;29.02;;
9716;SDS011;4897;43.570;27.832;2024-02-21T13:16:23;29.52;;;26.40;;
9716;SDS011;4897;43.570;27.832;2024-02-21T13:18:51;37.88;;;27.08;;
9716;SDS011;4897;43.570;27.832;2024-02-21T13:21:18;33.45;;;28.95;;
9716;SDS011;4897;43.570;27.832;2024-02-21T13:23:45;29.80;;;26.70;;
9716;SDS011;4897;43.570;27.832;2024-02-21T13:26:13;30.10;;;26.50;;
9716;SDS011;4897;43.570;27.832;2024-02-21T13:28:40;28.33;;;24.48;;
9716;SDS011;4897;43.570;27.832;2024-02-21T13:31:09;39.72;;;32.85;;
9716;SDS011;4897;43.570;27.832;2024-02-21T13:33:39;31.77;;;27.50;;
9716;SDS011;4897;43.570;27.832;2024-02-21T13:36:06;34.67;;;29.15;;
9716;SDS011;4897;43.570;27.832;2024-02-21T13:38:35;29.00;;;25.20;;
9716;SDS011;4897;43.570;27.832;2024-02-21T13:41:03;28.40;;;25.30;;
9716;SDS011;4897;43.570;27.832;2024-02-21T13:43:32;26.90;;;23.98;;
9716;SDS011;4897;43.570;27.832;2024-02-21T13:46:00;28.77;;;22.58;;
9716;SDS011;4897;43.570;27.832;2024-02-21T13:48:30;24.75;;;21.90;;
9716;SDS011;4897;43.570;27.832;2024-02-21T13:51:00;26.40;;;23.30;;
9716;SDS011;4897;43.570;27.832;2024-02-21T13:53:27;26.42;;;23.73;;
9716;SDS011;4897;43.570;27.832;2024-02-21T13:55:54;24.67;;;22.10;;
9716;SDS011;4897;43.570;27.832;2024-02-21T13:58:21;29.25;;;26.45;;
9716;SDS011;4897;43.570;27.832;2024-02-21T14:00:49;27.88;;;25.33;;
9716;SDS011;4897;43.570;27.832;2024-02-21T14:03:16;34.70;;;26.35;;
9716;SDS011;4897;43.570;27.832;2024-02-21T14:05:50;29.27;;;26.58;;
9716;SDS011;4897;43.570;27.832;2024-02-21T14:08:17;28.30;;;25.70;;
9716;SDS011;4897;43.570;27.832;2024-02-21T14:10:45;27.52;;;24.77;;
9716;SDS011;4897;43.570;27.832;2024-02-21T14:13:12;27.83;;;25.23;;
9716;SDS011;4897;43.570;27.832;2024-02-21T14:15:41;25.55;;;23.23;;
9716;SDS011;4897;43.570;27.832;2024-02-21T14:18:12;32.40;;;29.20;;
9716;SDS011;4897;43.570;27.832;2024-02-21T14:20:41;34.38;;;30.33;;
9716;SDS011;4897;43.570;27.832;2024-02-21T14:23:08;39.92;;;29.67;;
9716;SDS011;4897;43.570;27.832;2024-02-21T14:25:35;32.45;;;29.25;;
9716;SDS011;4897;43.570;27.832;2024-02-21T14:28:04;35.00;;;29.02;;
9716;SDS011;4897;43.570;27.832;2024-02-21T14:30:31;33.72;;;30.45;;
9716;SDS011;4897;43.570;27.832;2024-02-21T14:32:58;35.05;;;31.25;;
9716;SDS011;4897;43.570;27.832;2024-02-21T14:35:29;31.83;;;28.23;;
9716;SDS011;4897;43.570;27.832;2024-02-21T14:38:02;31.63;;;28.25;;